Time;durP1;ratioP1;P1;durP2;ratioP2;P2;SDS_P1;SDS_P2;PMS_P1;PMS_P2;Temp;Humidity;BMP_temperature;BMP_pressure;BME280_temperature;BME280_humidity;BME280_pressure;Samples;Min_cycle;Max_cycle;Signal;HPM_P1;HPM_P2
2023/03/08 00:00:26;;;;;;;;;;;0.80;91.10;;;;;;5036270;28;20033;-43
2023/03/08 00:02:56;;;;;;;10.40;3.97;;;0.80;91.00;;;;;;5046620;28;20004;-43
2023/03/08 00:05:25;;;;;;;6.50;3.55;;;0.80;91.00;;;;;;5052372;28;20128;-43
2023/03/08 00:07:57;;;;;;;5.70;3.42;;;0.80;91.00;;;;;;5054309;28;20151;-44
2023/03/08 00:10:25;;;;;;;11.43;4.32;;;0.80;91.00;;;;;;5054665;28;20017;-41
2023/03/08 00:12:51;;;;;;;7.60;3.63;;;0.70;91.00;;;;;;5052213;28;20464;-42
2023/03/08 00:15:18;;;;;;;4.75;2.90;;;0.70;91.00;;;;;;5049793;28;20101;-41
2023/03/08 00:17:45;;;;;;;3.55;2.40;;;0.70;91.20;;;;;;5033565;28;20087;-42
2023/03/08 00:20:14;;;;;;;4.68;3.15;;;0.70;91.40;;;;;;5047798;28;20025;-42
2023/03/08 00:22:41;;;;;;;6.80;4.07;;;0.80;91.40;;;;;;5037682;28;20091;-42
2023/03/08 00:25:09;;;;;;;6.00;3.60;;;0.80;91.40;;;;;;5039337;28;20029;-43
2023/03/08 00:27:41;;;;;;;6.82;3.65;;;0.80;91.40;;;;;;5052273;28;20025;-43
2023/03/08 00:30:07;;;;;;;7.75;4.32;;;0.80;91.30;;;;;;5054167;28;20025;-44
2023/03/08 00:32:35;;;;;;;3.95;2.42;;;0.70;90.90;;;;;;5054323;28;20025;-41
2023/03/08 00:35:04;;;;;;;4.60;2.70;;;0.70;91.00;;;;;;5053262;28;20029;-44
2023/03/08 00:37:31;;;;;;;6.10;2.47;;;0.60;90.90;;;;;;5047092;28;20057;-41
2023/03/08 00:39:58;;;;;;;4.20;2.72;;;0.60;90.70;;;;;;5034035;28;20045;-43
2023/03/08 00:42:24;;;;;;;4.90;3.30;;;0.50;90.70;;;;;;5034138;28;20022;-42
2023/03/08 00:44:54;;;;;;;4.07;2.60;;;0.50;90.80;;;;;;5033640;28;20676;-42
2023/03/08 00:47:20;;;;;;;5.25;2.85;;;0.50;90.80;;;;;;5047889;28;20048;-42
2023/03/08 00:49:49;;;;;;;4.85;2.63;;;0.50;90.90;;;;;;5051465;28;20359;-42
2023/03/08 00:52:17;;;;;;;4.32;2.70;;;0.50;90.70;;;;;;5053576;28;20024;-43
2023/03/08 00:54:44;;;;;;;3.92;2.67;;;0.40;90.70;;;;;;5052893;28;20056;-42
2023/03/08 00:57:15;;;;;;;3.72;2.17;;;0.40;90.60;;;;;;5052372;28;20447;-41
2023/03/08 00:59:43;;;;;;;4.45;2.28;;;0.40;90.70;;;;;;5051709;28;20032;-42
2023/03/08 01:02:09;;;;;;;4.95;2.40;;;0.40;90.60;;;;;;5052544;28;20129;-43
2023/03/08 01:04:37;;;;;;;3.58;2.25;;;0.30;90.50;;;;;;5018236;28;20111;-42
2023/03/08 01:07:04;;;;;;;4.25;3.17;;;0.30;90.60;;;;;;5053380;28;20045;-44
2023/03/08 01:09:35;;;;;;;3.70;2.15;;;0.30;90.60;;;;;;5043650;28;20517;-44
2023/03/08 01:12:01;;;;;;;3.42;2.13;;;0.30;90.70;;;;;;5034435;28;20033;-41
2023/03/08 01:14:30;;;;;;;5.15;2.00;;;0.30;90.60;;;;;;5052618;28;20035;-42
2023/03/08 01:16:56;;;;;;;3.20;2.00;;;0.20;90.70;;;;;;5053339;28;20833;-42
2023/03/08 01:19:23;;;;;;;5.43;2.30;;;0.30;90.60;;;;;;5041804;28;20030;-41
2023/03/08 01:21:52;;;;;;;3.58;2.33;;;0.20;90.60;;;;;;5052056;28;20174;-41
2023/03/08 01:24:20;;;;;;;4.80;2.17;;;0.20;90.60;;;;;;5053526;28;20041;-43
2023/03/08 01:26:47;;;;;;;5.00;2.50;;;0.20;90.70;;;;;;5052596;28;20051;-41
2023/03/08 01:29:13;;;;;;;5.82;3.08;;;0.20;90.60;;;;;;5052975;28;20033;-46
2023/03/08 01:31:38;;;;;;;5.28;2.30;;;0.20;90.50;;;;;;5043390;28;20039;-41
2023/03/08 01:34:05;;;;;;;7.47;3.28;;;0.20;90.50;;;;;;5033408;28;20075;-43
2023/03/08 01:36:32;;;;;;;4.15;2.72;;;0.10;90.50;;;;;;5048407;28;20036;-42
2023/03/08 01:39:03;;;;;;;4.43;2.42;;;0.10;90.70;;;;;;5050535;28;20067;-44
2023/03/08 01:41:30;;;;;;;5.80;3.05;;;0.10;90.70;;;;;;5032322;28;20030;-43
2023/03/08 01:43:56;;;;;;;6.30;2.25;;;0.10;90.80;;;;;;5033202;28;20344;-42
2023/03/08 01:46:34;;;;;;;4.72;1.98;;;0.10;90.90;;;;;;5032099;28;20033;-44
2023/03/08 01:49:09;;;;;;;5.22;2.28;;;0.10;91.00;;;;;;5051045;28;20033;-42
2023/03/08 01:51:57;;;;;;;3.25;1.80;;;0.20;91.10;;;;;;5047701;28;20497;-42
2023/03/08 01:54:52;;;;;;;6.65;2.60;;;0.20;91.20;;;;;;5033265;28;20060;-42
2023/03/08 01:57:35;;;;;;;6.25;2.38;;;0.30;91.40;;;;;;5032051;28;20104;-44
2023/03/08 02:00:26;;;;;;;3.30;1.52;;;0.30;91.50;;;;;;5031984;28;20462;-41
2023/03/08 02:03:08;;;;;;;4.97;1.65;;;0.40;91.70;;;;;;5036292;28;20037;-40
2023/03/08 02:05:40;;;;;;;4.57;1.73;;;0.50;91.80;;;;;;5035115;28;20025;-41
2023/03/08 02:08:09;;;;;;;3.55;1.75;;;0.40;91.90;;;;;;5030385;28;20046;-47
2023/03/08 02:10:42;;;;;;;2.35;1.50;;;0.50;91.90;;;;;;5032429;28;20025;-44
2023/03/08 02:13:09;;;;;;;2.47;1.33;;;0.60;92.00;;;;;;5032292;28;20466;-41
2023/03/08 02:15:39;;;;;;;4.53;0.90;;;0.60;92.00;;;;;;5039977;28;20044;-43
2023/03/08 02:18:07;;;;;;;;;;;0.60;91.90;;;;;;5051824;28;20041;-42
2023/03/08 02:20:51;;;;;;;2.63;1.45;;;0.60;92.00;;;;;;5042139;28;19962;-41
2023/03/08 02:23:35;;;;;;;2.53;1.00;;;0.60;92.00;;;;;;5038903;28;20021;-42
2023/03/08 02:26:05;;;;;;;3.05;1.38;;;0.60;92.10;;;;;;5048222;28;20033;-42
2023/03/08 02:28:33;;;;;;;2.70;1.20;;;0.60;92.00;;;;;;5033934;28;20083;-41
2023/03/08 02:31:00;;;;;;;1.67;1.00;;;0.60;92.00;;;;;;5030710;28;20198;-42
2023/03/08 02:33:29;;;;;;;3.78;1.45;;;0.50;91.70;;;;;;5032960;28;20030;-40
2023/03/08 02:35:57;;;;;;;4.22;1.23;;;0.40;91.90;;;;;;5037607;28;20170;-41
2023/03/08 02:38:25;;;;;;;3.08;1.52;;;0.40;91.90;;;;;;5051510;28;20041;-45
2023/03/08 02:40:53;;;;;;;4.40;1.42;;;0.40;91.90;;;;;;5050832;28;20086;-43
2023/03/08 02:43:21;;;;;;;3.38;1.75;;;0.40;91.90;;;;;;5050661;28;20108;-40
2023/03/08 02:45:47;;;;;;;5.95;2.13;;;0.40;91.90;;;;;;5056372;28;20044;-43
2023/03/08 02:48:14;;;;;;;5.05;2.33;;;0.40;92.00;;;;;;5055208;28;20040;-42
2023/03/08 02:50:40;;;;;;;4.65;3.58;;;0.40;92.00;;;;;;5037278;28;20041;-41
2023/03/08 02:53:09;;;;;;;4.57;2.28;;;0.40;91.90;;;;;;5054882;28;20029;-41
2023/03/08 02:55:40;;;;;;;3.60;1.90;;;0.40;92.00;;;;;;5056150;28;20025;-41
2023/03/08 02:58:09;;;;;;;7.20;2.38;;;0.30;91.80;;;;;;5051568;28;20064;-40
2023/03/08 03:00:37;;;;;;;;;;;0.30;91.80;;;;;;5053533;28;20025;-40
2023/03/08 03:03:06;;;;;;;3.08;1.98;;;0.30;91.70;;;;;;5047100;28;19909;-41
2023/03/08 03:05:32;;;;;;;3.67;2.33;;;0.20;91.50;;;;;;5035881;28;20036;-41
2023/03/08 03:08:00;;;;;;;4.68;1.90;;;0.20;91.40;;;;;;5021707;28;20049;-40
2023/03/08 03:10:30;;;;;;;3.22;2.08;;;0.20;91.50;;;;;;5034829;28;20120;-41
2023/03/08 03:12:57;;;;;;;4.70;3.03;;;0.20;91.20;;;;;;5036124;28;20040;-40
2023/03/08 03:15:27;;;;;;;6.32;2.00;;;0.10;91.20;;;;;;5035546;28;20026;-41
2023/03/08 03:17:55;;;;;;;4.47;2.15;;;0.10;91.10;;;;;;5035930;28;20029;-42
2023/03/08 03:20:26;;;;;;;3.33;1.90;;;0.00;91.10;;;;;;5055615;28;20035;-42
2023/03/08 03:22:53;;;;;;;3.03;1.80;;;0.00;91.10;;;;;;5054679;28;20091;-41
2023/03/08 03:25:19;;;;;;;6.75;1.73;;;0.00;91.10;;;;;;5037774;28;20029;-41
2023/03/08 03:27:47;;;;;;;5.28;2.00;;;0.00;91.00;;;;;;5035390;28;20021;-41
2023/03/08 03:30:14;;;;;;;3.75;1.90;;;0.00;91.20;;;;;;5035463;28;20021;-40
2023/03/08 03:32:41;;;;;;;8.00;1.88;;;0.00;91.20;;;;;;5051988;28;20040;-41
2023/03/08 03:35:09;;;;;;;2.33;1.23;;;0.00;91.20;;;;;;5055342;28;20053;-40
2023/03/08 03:37:37;;;;;;;5.28;1.67;;;0.00;91.30;;;;;;5052196;28;20494;-41
2023/03/08 03:40:16;;;;;;;4.55;1.70;;;0.00;91.30;;;;;;5048532;28;20052;-41
2023/03/08 03:42:45;;;;;;;5.75;1.90;;;0.00;91.50;;;;;;5035313;28;20041;-41
2023/03/08 03:45:13;;;;;;;4.45;2.13;;;0.00;91.40;;;;;;5037034;28;20080;-40
2023/03/08 03:47:38;;;;;;;7.75;2.65;;;0.00;91.40;;;;;;5035042;28;20073;-40
2023/03/08 03:50:08;;;;;;;4.55;2.30;;;0.00;91.40;;;;;;5034958;28;20059;-40
2023/03/08 03:52:34;;;;;;;3.97;2.03;;;0.00;91.30;;;;;;5040209;28;20393;-41
2023/03/08 03:55:01;;;;;;;4.68;2.10;;;0.00;91.40;;;;;;5054089;28;20037;-41
2023/03/08 03:57:28;;;;;;;6.03;3.75;;;0.00;91.30;;;;;;5053479;28;20033;-41
2023/03/08 03:59:54;;;;;;;3.97;2.10;;;0.00;91.30;;;;;;5051836;28;20098;-41
2023/03/08 04:02:21;;;;;;;3.78;2.00;;;0.00;91.20;;;;;;5034368;28;20037;-42
2023/03/08 04:04:49;;;;;;;4.93;2.25;;;0.00;91.30;;;;;;5039039;28;20143;-40
2023/03/08 04:07:19;;;;;;;3.78;2.10;;;0.00;91.40;;;;;;5051847;28;20132;-42
2023/03/08 04:09:47;;;;;;;4.40;2.30;;;0.00;91.50;;;;;;5048166;28;20029;-42
2023/03/08 04:12:13;;;;;;;4.40;2.13;;;0.00;91.40;;;;;;5054726;28;20519;-41
2023/03/08 04:14:42;;;;;;;5.45;2.70;;;0.00;91.50;;;;;;5054405;28;20103;-43
2023/03/08 04:17:09;;;;;;;5.47;2.58;;;0.10;91.60;;;;;;5045239;28;20072;-45
2023/03/08 04:19:37;;;;;;;3.40;2.17;;;0.10;91.60;;;;;;5034621;28;20399;-41
2023/03/08 04:22:07;;;;;;;5.10;2.30;;;0.10;91.70;;;;;;5034360;28;20026;-41
2023/03/08 04:24:34;;;;;;;;;;;0.20;91.70;;;;;;5053884;28;20025;-43
2023/03/08 04:27:02;;;;;;;4.97;2.53;;;0.10;91.60;;;;;;5045903;28;19975;-43
2023/03/08 04:29:31;;;;;;;3.90;2.28;;;0.10;91.70;;;;;;5034392;28;20030;-42
2023/03/08 04:31:59;;;;;;;4.97;2.50;;;0.10;91.50;;;;;;5050334;28;20317;-41
2023/03/08 04:34:26;;;;;;;6.40;2.58;;;0.10;91.50;;;;;;5048363;28;20044;-41
2023/03/08 04:36:52;;;;;;;3.97;2.40;;;0.10;91.60;;;;;;5033123;28;20034;-41
2023/03/08 04:39:19;;;;;;;5.70;1.90;;;0.00;91.50;;;;;;5049487;28;20033;-42
2023/03/08 04:41:47;;;;;;;4.22;2.75;;;0.00;91.50;;;;;;5053838;28;20094;-42
2023/03/08 04:44:14;;;;;;;6.88;2.90;;;0.00;91.50;;;;;;5041663;28;20025;-42
2023/03/08 04:46:40;;;;;;;3.22;2.42;;;0.00;91.60;;;;;;5053580;28;21947;-42
2023/03/08 04:49:06;;;;;;;4.93;2.78;;;0.10;91.60;;;;;;5053390;28;20477;-42
2023/03/08 04:51:35;;;;;;;3.22;2.08;;;0.10;91.50;;;;;;5052021;28;20083;-41
2023/03/08 04:54:03;;;;;;;3.72;2.33;;;0.10;91.60;;;;;;5051560;28;20052;-41
2023/03/08 04:56:33;;;;;;;6.32;2.30;;;0.10;91.50;;;;;;5053724;28;20505;-40
2023/03/08 04:59:01;;;;;;;5.18;2.28;;;0.10;91.40;;;;;;5051983;28;20047;-42
2023/03/08 05:01:28;;;;;;;8.88;3.25;;;0.10;91.30;;;;;;5053659;28;20071;-40
2023/03/08 05:03:55;;;;;;;4.45;2.97;;;0.10;91.30;;;;;;5044536;28;20041;-42
2023/03/08 05:06:27;;;;;;;7.13;2.67;;;0.00;91.10;;;;;;5046248;28;20039;-41
2023/03/08 05:08:54;;;;;;;8.25;2.47;;;0.00;91.20;;;;;;5044074;28;20470;-40
2023/03/08 05:11:26;;;;;;;4.93;2.85;;;0.00;91.10;;;;;;5047861;28;20373;-41
2023/03/08 05:13:58;;;;;;;4.53;2.28;;;-3276.70;90.80;;;;;;5016279;28;20549;-41
2023/03/08 05:16:25;;;;;;;4.45;2.17;;;-3276.60;90.70;;;;;;5032463;28;20108;-41
2023/03/08 05:18:52;;;;;;;4.80;2.28;;;-3276.50;90.80;;;;;;5033191;28;20120;-41
2023/03/08 05:21:20;;;;;;;4.15;2.00;;;-3276.50;90.80;;;;;;5053163;28;20062;-42
2023/03/08 05:23:48;;;;;;;5.38;2.15;;;-3276.40;90.50;;;;;;5051461;28;20112;-41
2023/03/08 05:26:16;;;;;;;4.47;2.58;;;-3276.40;90.60;;;;;;5033776;28;20036;-41
2023/03/08 05:28:42;;;;;;;3.63;2.15;;;-3276.30;90.60;;;;;;5048715;28;20043;-41
2023/03/08 05:31:12;;;;;;;3.72;2.10;;;-3276.30;90.30;;;;;;5033352;28;20033;-43
2023/03/08 05:33:41;;;;;;;4.70;2.15;;;-3276.30;90.40;;;;;;5040876;28;20108;-40
2023/03/08 05:36:10;;;;;;;4.40;2.38;;;-3276.20;90.20;;;;;;5052022;28;20029;-41
2023/03/08 05:38:36;;;;;;;5.70;2.58;;;-3276.10;90.10;;;;;;5050327;28;20108;-42
2023/03/08 05:41:14;;;;;;;4.75;2.47;;;-3276.00;90.40;;;;;;5053305;28;20132;-40
2023/03/08 05:43:40;;;;;;;5.57;2.70;;;-3276.00;90.50;;;;;;5043027;28;20045;-42
2023/03/08 05:46:19;;;;;;;4.75;2.92;;;-3276.10;90.60;;;;;;5032286;28;20033;-40
2023/03/08 05:48:44;;;;;;;6.35;2.60;;;-3276.10;90.50;;;;;;5050591;28;20044;-40
2023/03/08 05:51:13;;;;;;;5.22;2.85;;;-3276.10;90.70;;;;;;5041721;28;20030;-42
2023/03/08 05:53:45;;;;;;;5.53;2.80;;;-3276.20;90.60;;;;;;5032675;28;20045;-45
2023/03/08 05:56:17;;;;;;;6.78;3.05;;;-3276.10;90.50;;;;;;5033083;28;20033;-41
2023/03/08 05:58:44;;;;;;;3.90;2.20;;;-3276.20;90.60;;;;;;5017749;28;20065;-42
2023/03/08 06:01:30;;;;;;;3.33;2.25;;;-3276.20;90.50;;;;;;5051763;28;20135;-40
2023/03/08 06:03:57;;;;;;;4.00;2.40;;;-3276.30;90.40;;;;;;5051791;28;20120;-42
2023/03/08 06:06:26;;;;;;;4.80;2.92;;;-3276.30;90.50;;;;;;5044640;28;20132;-40
2023/03/08 06:08:55;;;;;;;7.57;3.45;;;-3276.30;90.50;;;;;;5032037;28;20107;-41
2023/03/08 06:11:23;;;;;;;8.57;3.95;;;-3276.40;90.50;;;;;;5042362;28;20034;-43
2023/03/08 06:13:51;;;;;;;6.20;3.15;;;-3276.30;90.20;;;;;;5033047;28;20044;-41
2023/03/08 06:16:18;;;;;;;8.25;2.25;;;-3276.30;90.20;;;;;;5033003;28;20021;-42
2023/03/08 06:18:45;;;;;;;5.03;2.80;;;-3276.30;90.30;;;;;;5052945;28;20033;-41
2023/03/08 06:21:22;;;;;;;3.92;2.28;;;-3276.30;90.40;;;;;;5055700;28;20029;-44
2023/03/08 06:23:50;;;;;;;6.25;2.47;;;-3276.30;90.60;;;;;;5043808;28;20051;-41
2023/03/08 06:26:17;;;;;;;3.47;2.05;;;-3276.40;90.50;;;;;;5055098;28;20033;-41
2023/03/08 06:28:45;;;;;;;7.32;2.45;;;-3276.40;90.50;;;;;;5055071;28;20031;-42
2023/03/08 06:31:16;;;;;;;9.10;2.67;;;-3276.40;90.40;;;;;;5044919;28;20036;-41
2023/03/08 06:33:43;;;;;;;3.50;2.28;;;-3276.40;90.30;;;;;;5039080;28;20397;-44
2023/03/08 06:36:16;;;;;;;3.53;2.08;;;-3276.40;90.20;;;;;;5047870;28;20033;-40
2023/03/08 06:38:43;;;;;;;3.88;2.00;;;-3276.40;90.20;;;;;;5035270;28;20365;-42
2023/03/08 06:41:12;;;;;;;6.43;3.95;;;-3276.40;89.90;;;;;;5050454;28;20420;-41
2023/03/08 06:43:40;;;;;;;6.13;2.75;;;-3276.40;89.90;;;;;;5051983;28;20378;-43
2023/03/08 06:46:16;;;;;;;3.63;1.97;;;-3276.40;89.80;;;;;;5035637;28;20344;-43
2023/03/08 06:48:42;;;;;;;4.13;2.50;;;-3276.40;89.70;;;;;;5035942;28;20029;-41
2023/03/08 06:51:11;;;;;;;4.60;2.65;;;-3276.40;89.60;;;;;;5046883;28;20031;-43
2023/03/08 06:53:37;;;;;;;4.18;2.35;;;-3276.40;89.40;;;;;;5036447;28;20101;-41
2023/03/08 06:56:06;;;;;;;4.18;1.92;;;-3276.50;89.40;;;;;;5044407;28;20037;-41
2023/03/08 06:58:34;;;;;;;5.93;2.60;;;-3276.50;89.20;;;;;;5035050;28;20037;-40
2023/03/08 07:01:03;;;;;;;3.85;1.90;;;-3276.50;89.20;;;;;;5040698;28;20528;-40
2023/03/08 07:03:32;;;;;;;3.65;2.30;;;-3276.50;89.10;;;;;;5055511;28;20033;-41
2023/03/08 07:06:06;;;;;;;8.98;3.35;;;-3276.50;89.00;;;;;;5055233;28;20060;-41
2023/03/08 07:08:37;;;;;;;3.60;1.83;;;-3276.60;88.80;;;;;;5054446;28;20049;-41
2023/03/08 07:11:05;;;;;;;5.35;1.85;;;-3276.50;88.70;;;;;;5051330;28;20319;-42
2023/03/08 07:13:34;;;;;;;5.65;2.95;;;-3276.60;88.80;;;;;;5048393;28;20018;-44
2023/03/08 07:16:10;;;;;;;5.70;2.90;;;-3276.60;88.60;;;;;;5044029;28;20043;-41
2023/03/08 07:18:36;;;;;;;4.05;2.30;;;-3276.60;88.60;;;;;;5039553;28;20067;-43
2023/03/08 07:21:03;;;;;;;4.28;2.60;;;-3276.60;88.50;;;;;;5034728;28;20087;-41
2023/03/08 07:23:31;;;;;;;5.60;2.28;;;-3276.70;88.90;;;;;;5045300;28;20031;-40
2023/03/08 07:25:58;;;;;;;7.13;2.83;;;-3276.70;88.50;;;;;;5054689;28;20140;-40
2023/03/08 07:28:25;;;;;;;5.05;2.95;;;0.00;88.70;;;;;;5054246;28;20039;-41
2023/03/08 07:30:53;;;;;;;6.75;2.92;;;0.00;88.50;;;;;;5054050;28;20060;-41
2023/03/08 07:33:20;;;;;;;5.40;2.67;;;0.00;88.40;;;;;;5037574;28;20358;-41
2023/03/08 07:35:46;;;;;;;4.93;2.30;;;0.00;88.40;;;;;;5054298;28;20039;-43
2023/03/08 07:38:16;;;;;;;5.97;2.92;;;0.10;88.50;;;;;;5037607;28;20025;-40
2023/03/08 07:40:43;;;;;;;8.15;2.30;;;0.20;88.30;;;;;;5050120;28;20119;-40
2023/03/08 07:43:13;;;;;;;5.30;2.38;;;0.30;88.20;;;;;;5034072;28;20124;-42
2023/03/08 07:45:38;;;;;;;;;;;0.30;88.10;;;;;;5034866;28;20451;-42
2023/03/08 07:48:07;;;;;;;4.10;1.83;;;0.30;87.90;;;;;;5035087;28;19931;-40
2023/03/08 07:50:34;;;;;;;4.68;2.53;;;0.40;87.90;;;;;;5034226;28;20024;-43
2023/03/08 07:53:01;;;;;;;5.10;2.47;;;0.40;87.90;;;;;;5041991;28;20401;-42
2023/03/08 07:55:28;;;;;;;4.18;2.10;;;0.50;88.10;;;;;;5035951;28;20739;-42
2023/03/08 07:57:54;;;;;;;4.30;2.28;;;0.60;87.80;;;;;;5035713;28;20069;-42
2023/03/08 08:00:24;;;;;;;6.50;2.78;;;0.70;87.60;;;;;;5054435;28;20488;-41
2023/03/08 08:02:56;;;;;;;4.60;2.28;;;0.80;87.60;;;;;;5052342;28;20423;-43
2023/03/08 08:05:24;;;;;;;4.03;2.40;;;0.90;87.30;;;;;;5052407;28;20511;-44
2023/03/08 08:07:51;;;;;;;7.45;2.17;;;0.90;87.00;;;;;;5054346;28;20048;-42
2023/03/08 08:10:19;;;;;;;4.38;2.03;;;1.00;86.90;;;;;;5053586;28;20033;-42
2023/03/08 08:12:51;;;;;;;4.22;2.30;;;1.10;86.60;;;;;;5052909;28;20060;-43
2023/03/08 08:15:18;;;;;;;5.15;2.72;;;1.30;86.40;;;;;;5053324;28;20093;-46
2023/03/08 08:17:47;;;;;;;5.20;2.30;;;1.40;85.80;;;;;;5054161;28;20072;-44
2023/03/08 08:20:13;;;;;;;4.60;2.28;;;1.40;85.40;;;;;;5053389;28;20033;-44
2023/03/08 08:22:48;;;;;;;4.15;2.30;;;1.40;85.40;;;;;;5054589;28;20493;-45
2023/03/08 08:25:16;;;;;;;3.72;2.35;;;1.40;85.00;;;;;;5054693;28;20033;-47
2023/03/08 08:27:42;;;;;;;5.65;3.33;;;1.40;85.40;;;;;;5052625;28;20029;-50
2023/03/08 08:30:14;;;;;;;4.38;2.25;;;1.30;85.50;;;;;;5036599;28;20470;-46
2023/03/08 08:32:41;;;;;;;8.32;2.83;;;1.40;85.50;;;;;;5049233;28;20052;-46
2023/03/08 08:35:09;;;;;;;5.40;2.50;;;1.30;85.40;;;;;;5044942;28;20152;-47
2023/03/08 08:37:37;;;;;;;5.38;2.30;;;1.30;85.50;;;;;;5034306;28;20029;-50
2023/03/08 08:40:06;;;;;;;5.25;2.92;;;1.30;85.70;;;;;;5034200;28;20109;-50
2023/03/08 08:42:35;;;;;;;5.22;2.40;;;1.30;85.80;;;;;;5047932;28;20048;-54
2023/03/08 08:45:01;;;;;;;5.60;3.60;;;1.40;86.00;;;;;;5053883;28;20107;-56
2023/03/08 08:47:30;;;;;;;5.85;3.33;;;1.40;86.20;;;;;;5036644;28;20107;-56
2023/03/08 08:49:59;;;;;;;5.10;3.28;;;1.50;85.90;;;;;;5032597;28;20044;-57
2023/03/08 08:52:25;;;;;;;5.97;3.28;;;1.60;85.80;;;;;;5051152;28;20044;-57
2023/03/08 08:54:52;;;;;;;6.38;3.88;;;1.70;85.60;;;;;;5045428;28;20160;-60
2023/03/08 08:57:21;;;;;;;6.07;4.03;;;1.60;85.00;;;;;;5041010;28;20572;-61
2023/03/08 08:59:49;;;;;;;5.13;3.30;;;1.50;85.30;;;;;;5049849;28;20114;-61
2023/03/08 09:02:16;;;;;;;5.80;4.22;;;1.60;85.80;;;;;;5049400;28;20054;-61
2023/03/08 09:04:45;;;;;;;8.95;4.47;;;1.70;85.70;;;;;;5048077;28;20048;-61
2023/03/08 09:07:18;;;;;;;6.88;4.18;;;1.80;85.80;;;;;;5046724;28;20470;-58
2023/03/08 09:09:46;;;;;;;5.68;3.80;;;1.80;85.50;;;;;;5053661;28;20112;-58
2023/03/08 09:12:13;;;;;;;7.43;4.05;;;1.80;85.40;;;;;;5052780;28;20029;-57
2023/03/08 09:14:43;;;;;;;6.05;3.67;;;1.80;85.50;;;;;;5038973;28;20471;-55
2023/03/08 09:17:10;;;;;;;5.10;3.70;;;1.70;85.30;;;;;;5042522;28;20041;-56
2023/03/08 09:19:41;;;;;;;6.38;3.90;;;1.70;85.70;;;;;;5052509;28;20033;-53
2023/03/08 09:22:09;;;;;;;6.63;4.28;;;1.80;85.40;;;;;;5048086;28;20025;-55
2023/03/08 09:24:37;;;;;;;5.30;3.70;;;1.90;86.00;;;;;;5036501;28;20043;-55
2023/03/08 09:27:07;;;;;;;6.60;4.07;;;2.00;85.60;;;;;;5051598;28;20067;-53
2023/03/08 09:29:36;;;;;;;9.13;3.83;;;2.20;85.60;;;;;;5032748;28;20501;-55
2023/03/08 09:32:03;;;;;;;6.40;4.30;;;2.20;84.60;;;;;;5045683;28;20036;-54
2023/03/08 09:34:31;;;;;;;7.40;5.18;;;2.20;85.00;;;;;;5033629;28;20106;-56
2023/03/08 09:36:56;;;;;;;7.10;4.25;;;2.40;85.00;;;;;;5033195;28;20036;-55
2023/03/08 09:39:23;;;;;;;6.60;4.10;;;2.40;85.20;;;;;;5032949;28;20022;-55
2023/03/08 09:41:55;;;;;;;7.80;4.95;;;2.50;85.50;;;;;;5038710;28;20041;-55
2023/03/08 09:44:49;;;;;;;8.05;4.68;;;2.60;84.70;;;;;;5033413;28;20308;-57
2023/03/08 09:47:42;;;;;;;6.55;4.00;;;2.70;84.80;;;;;;5031998;28;20421;-58
2023/03/08 09:50:49;;;;;;;7.43;4.47;;;2.90;84.40;;;;;;5036569;28;20102;-59
2023/03/08 09:53:37;;;;;;;5.93;3.85;;;3.00;84.00;;;;;;5049196;28;20036;-57
2023/03/08 09:56:23;;;;;;;6.97;4.28;;;3.00;83.40;;;;;;5047339;28;20115;-57
2023/03/08 09:59:03;;;;;;;7.60;3.40;;;2.90;83.10;;;;;;5039640;28;20045;-56
2023/03/08 10:02:24;;;;;;;4.57;3.55;;;2.90;83.70;;;;;;5047458;28;20634;-54
2023/03/08 10:05:32;;;;;;;7.25;3.90;;;2.90;84.10;;;;;;4976413;28;20042;-52
2023/03/08 10:08:26;;;;;;;5.20;3.45;;;2.90;84.10;;;;;;4991043;28;20043;-50
2023/03/08 10:11:12;;;;;;;6.45;3.90;;;2.80;84.20;;;;;;4991549;28;20031;-49
2023/03/08 10:13:50;;;;;;;4.78;3.58;;;2.90;84.60;;;;;;4969385;28;20035;-50
2023/03/08 10:16:27;;;;;;;6.03;4.40;;;2.80;84.20;;;;;;4971592;28;20031;-48
2023/03/08 10:19:06;;;;;;;5.75;4.18;;;2.70;84.60;;;;;;4990089;28;20158;-49
2023/03/08 10:21:37;;;;;;;5.82;4.10;;;2.80;84.80;;;;;;4990777;28;20117;-51
2023/03/08 10:24:33;;;;;;;7.22;4.85;;;2.80;84.90;;;;;;4991513;28;20082;-48
2023/03/08 10:27:28;;;;;;;5.68;4.50;;;2.70;84.80;;;;;;4989000;28;20045;-49
2023/03/08 10:29:58;;;;;;;7.13;5.40;;;2.80;84.50;;;;;;4991506;28;20035;-51
2023/03/08 10:32:40;;;;;;;5.30;4.53;;;2.90;84.70;;;;;;4991389;28;20046;-50
2023/03/08 10:35:08;;;;;;;7.80;5.30;;;2.90;84.60;;;;;;4988905;28;20480;-54
2023/03/08 10:37:39;;;;;;;9.75;5.53;;;2.90;85.00;;;;;;4968933;28;20037;-52
2023/03/08 10:40:17;;;;;;;8.15;5.82;;;3.00;84.70;;;;;;5052478;28;20455;-54
2023/03/08 10:43:25;;;;;;;9.20;5.75;;;3.20;84.50;;;;;;5031369;28;20037;-49
2023/03/08 10:46:11;;;;;;;8.45;5.20;;;3.40;84.20;;;;;;5052625;28;20029;-50
2023/03/08 10:48:37;;;;;;;7.72;5.05;;;3.50;84.40;;;;;;5050191;28;20416;-53
2023/03/08 10:51:05;;;;;;;8.25;5.18;;;3.60;83.10;;;;;;5034145;28;20593;-53
2023/03/08 10:53:31;;;;;;;9.40;5.97;;;3.60;83.30;;;;;;5051108;28;20037;-54
2023/03/08 10:56:02;;;;;;;9.07;5.20;;;3.80;83.10;;;;;;5039602;28;20037;-53
2023/03/08 10:58:36;;;;;;;6.70;4.53;;;3.90;82.20;;;;;;5042481;28;20029;-53
2023/03/08 11:01:25;;;;;;;6.68;4.47;;;4.00;82.50;;;;;;5049098;28;20041;-56
2023/03/08 11:04:27;;;;;;;6.90;4.43;;;4.20;82.00;;;;;;5052183;28;20435;-56
2023/03/08 11:06:54;;;;;;;5.88;4.85;;;4.00;81.30;;;;;;5041012;28;20362;-56
2023/03/08 11:09:39;;;;;;;7.85;4.80;;;4.20;81.80;;;;;;5036117;28;20069;-52
2023/03/08 11:12:23;;;;;;;6.50;4.53;;;4.20;81.70;;;;;;5054585;28;20029;-55
2023/03/08 11:14:51;;;;;;;6.28;4.22;;;4.10;81.20;;;;;;5029336;28;20037;-53
2023/03/08 11:17:46;;;;;;;9.50;4.97;;;4.30;81.90;;;;;;5053183;28;20025;-50
2023/03/08 11:20:40;;;;;;;7.13;4.65;;;4.30;81.20;;;;;;5040761;28;20041;-50
2023/03/08 11:23:06;;;;;;;5.18;4.13;;;4.50;81.40;;;;;;5034746;28;20040;-50
2023/03/08 11:25:50;;;;;;;7.45;3.63;;;4.60;80.40;;;;;;5052311;28;20029;-52
2023/03/08 11:28:46;;;;;;;5.68;3.08;;;4.80;80.20;;;;;;5049265;28;20033;-49
2023/03/08 11:31:30;;;;;;;4.22;2.42;;;4.90;79.50;;;;;;5053790;28;20111;-50
2023/03/08 11:34:27;;;;;;;6.65;2.63;;;4.90;76.90;;;;;;5055400;28;20055;-50
2023/03/08 11:37:12;;;;;;;4.20;2.58;;;5.00;76.20;;;;;;5033240;28;20037;-49
2023/03/08 11:39:51;;;;;;;5.97;2.60;;;5.00;75.80;;;;;;5034147;28;20053;-51
2023/03/08 11:42:39;;;;;;;6.03;2.42;;;5.10;75.60;;;;;;5047322;28;20029;-50
2023/03/08 11:45:50;;;;;;;5.28;2.22;;;5.00;75.30;;;;;;5055327;28;20029;-49
2023/03/08 11:48:49;;;;;;;3.90;1.63;;;4.90;73.90;;;;;;5035105;28;20100;-49
2023/03/08 11:51:38;;;;;;;3.88;1.80;;;5.00;74.10;;;;;;5034972;28;20025;-48
2023/03/08 11:54:40;;;;;;;3.92;1.48;;;5.00;74.70;;;;;;5047187;28;20100;-49
2023/03/08 11:57:13;;;;;;;3.92;1.42;;;5.00;75.00;;;;;;5040327;28;20037;-49
2023/03/08 11:59:53;;;;;;;3.72;1.73;;;5.00;75.00;;;;;;5018801;28;20107;-53
2023/03/08 12:02:28;;;;;;;3.72;2.15;;;4.90;75.00;;;;;;5046705;28;20044;-48
2023/03/08 12:05:33;;;;;;;4.28;1.85;;;5.00;75.40;;;;;;5052696;28;20179;-49
2023/03/08 12:08:34;;;;;;;4.03;1.80;;;5.00;74.80;;;;;;5052920;28;20056;-49
2023/03/08 12:11:24;;;;;;;4.07;1.77;;;4.90;74.90;;;;;;5052261;28;20079;-50
2023/03/08 12:13:52;;;;;;;;;;;5.00;74.80;;;;;;5043470;28;20041;-49
2023/03/08 12:17:09;;;;;;;4.97;2.30;;;5.10;74.00;;;;;;5052337;28;19948;-51
2023/03/08 12:19:45;;;;;;;6.80;4.53;;;5.10;74.60;;;;;;5029081;28;20554;-48
2023/03/08 12:22:56;;;;;;;5.05;3.63;;;5.10;76.70;;;;;;5034788;28;20075;-50
2023/03/08 12:26:01;;;;;;;6.75;3.10;;;5.00;77.40;;;;;;5040857;28;20087;-50
2023/03/08 12:28:44;;;;;;;6.15;2.90;;;5.00;76.70;;;;;;5016458;28;20060;-48
2023/03/08 12:31:34;;;;;;;8.45;3.40;;;5.00;75.50;;;;;;5039510;28;20044;-47
2023/03/08 12:34:33;;;;;;;6.38;4.50;;;5.00;75.50;;;;;;5049994;28;20045;-47
2023/03/08 12:36:59;;;;;;;10.23;4.13;;;5.20;77.60;;;;;;5035219;28;20458;-47
2023/03/08 12:39:34;;;;;;;5.95;3.90;;;5.20;77.90;;;;;;5052606;28;20033;-50
2023/03/08 12:42:15;;;;;;;7.35;4.65;;;5.20;78.50;;;;;;5051126;28;20094;-45
2023/03/08 12:44:43;;;;;;;5.68;4.10;;;5.30;78.20;;;;;;5054066;28;20021;-45
2023/03/08 12:47:30;;;;;;;5.63;3.63;;;5.20;78.20;;;;;;5048268;28;20030;-47
2023/03/08 12:50:05;;;;;;;9.02;5.15;;;5.20;78.00;;;;;;5033944;28;20021;-46
2023/03/08 12:52:34;;;;;;;8.80;5.05;;;4.90;77.90;;;;;;5067940;28;20048;-47
2023/03/08 12:55:07;;;;;;;5.50;4.10;;;4.70;79.00;;;;;;5052112;28;20029;-48
2023/03/08 12:57:44;;;;;;;7.97;4.82;;;4.70;79.50;;;;;;5053349;28;20029;-53
2023/03/08 13:00:34;;;;;;;6.50;4.10;;;4.60;80.00;;;;;;5040272;28;20358;-59
2023/03/08 13:03:13;;;;;;;11.20;5.00;;;4.60;79.90;;;;;;5043302;28;20033;-62
2023/03/08 13:05:40;;;;;;;;;;;4.60;79.50;;;;;;5054042;28;20029;-62
2023/03/08 13:08:15;;;;;;;7.22;4.65;;;4.80;78.60;;;;;;5050991;28;19921;-62
2023/03/08 13:11:02;;;;;;;5.35;2.60;;;4.70;75.10;;;;;;5051812;28;20025;-60
2023/03/08 13:13:56;;;;;;;6.00;3.03;;;4.50;74.10;;;;;;5049784;28;20017;-59
2023/03/08 13:16:35;;;;;;;4.60;2.60;;;4.50;75.30;;;;;;5032218;28;20033;-55
2023/03/08 13:19:23;;;;;;;6.70;2.60;;;4.60;74.20;;;;;;5032328;28;20025;-55
2023/03/08 13:22:07;;;;;;;5.97;2.30;;;4.60;73.60;;;;;;5048937;28;20033;-55